Time;durP1;ratioP1;P1;durP2;ratioP2;P2;SDS_P1;SDS_P2;PMS_P1;PMS_P2;Temp;Humidity;BMP_temperature;BMP_pressure;BME280_temperature;BME280_humidity;BME280_pressure;Samples;Min_cycle;Max_cycle;Signal;HPM_P1;HPM_P2
2022/12/24 00:01:18;;;;;;;2.90;1.13;;;14.30;49.50;;;;;;5013881;28;20462;-75
2022/12/24 00:03:43;;;;;;;3.00;1.30;;;14.10;50.10;;;;;;5013182;28;20479;-75
2022/12/24 00:06:16;;;;;;;2.90;1.20;;;14.50;48.20;;;;;;5009967;28;20210;-75
2022/12/24 00:08:41;;;;;;;3.00;1.20;;;14.50;46.50;;;;;;5012430;28;20637;-75
2022/12/24 00:11:07;;;;;;;2.90;1.17;;;14.00;47.80;;;;;;5013681;28;20424;-75
2022/12/24 00:13:33;;;;;;;3.50;1.40;;;13.70;50.50;;;;;;5013320;28;20187;-75
2022/12/24 00:15:59;;;;;;;3.10;1.30;;;13.20;51.50;;;;;;5005254;28;20204;-75
2022/12/24 00:18:25;;;;;;;2.90;1.10;;;13.70;50.00;;;;;;5012974;28;20170;-75
2022/12/24 00:20:51;;;;;;;2.93;1.20;;;13.90;47.00;;;;;;5013410;28;20989;-75
2022/12/24 00:23:17;;;;;;;2.97;1.30;;;13.40;48.80;;;;;;5013247;28;20545;-75
2022/12/24 00:25:43;;;;;;;3.00;1.20;;;13.40;49.10;;;;;;5015497;28;20563;-75
2022/12/24 00:28:09;;;;;;;3.00;1.20;;;13.40;48.20;;;;;;5009555;28;20801;-75
2022/12/24 00:30:37;;;;;;;3.07;1.20;;;13.70;47.50;;;;;;5013377;28;20412;-75
2022/12/24 00:33:04;;;;;;;4.20;1.97;;;14.50;46.70;;;;;;5011415;28;20957;-75
2022/12/24 00:35:33;;;;;;;2.93;1.20;;;14.30;44.80;;;;;;5013214;28;20525;-75
2022/12/24 00:37:58;;;;;;;3.00;1.30;;;14.40;45.60;;;;;;5008338;28;20449;-75
2022/12/24 00:40:24;;;;;;;3.00;1.20;;;14.00;44.50;;;;;;5009429;28;20438;-75
2022/12/24 00:42:49;;;;;;;3.00;1.20;;;13.80;45.20;;;;;;5009893;28;20189;-75
2022/12/24 00:45:15;;;;;;;3.00;1.30;;;14.00;44.10;;;;;;5003220;28;20685;-75
2022/12/24 00:47:41;;;;;;;3.00;1.20;;;14.00;43.80;;;;;;5012986;28;20197;-75
2022/12/24 00:50:07;;;;;;;3.00;1.30;;;13.80;44.30;;;;;;5010898;28;20680;-75
2022/12/24 00:52:33;;;;;;;2.80;1.10;;;13.80;44.40;;;;;;5011176;28;20180;-75
2022/12/24 00:54:59;;;;;;;2.90;1.10;;;14.00;44.30;;;;;;5012647;28;20409;-75
2022/12/24 00:57:24;;;;;;;2.90;1.20;;;14.10;44.90;;;;;;5012504;28;20438;-75
2022/12/24 00:59:50;;;;;;;3.00;1.20;;;14.10;43.60;;;;;;5005518;28;20565;-75
2022/12/24 01:02:16;;;;;;;3.17;1.30;;;14.30;43.30;;;;;;5011733;28;20267;-75
2022/12/24 01:07:25;;;;;;;2.93;1.10;;;14.70;41.10;;;;;;5012606;28;20750;-75
2022/12/24 01:09:51;;;;;;;3.00;1.27;;;14.80;41.50;;;;;;5008351;28;20450;-75
2022/12/24 01:12:16;;;;;;;3.00;1.30;;;14.50;41.70;;;;;;5006936;28;20662;-75
2022/12/24 01:14:42;;;;;;;3.00;1.20;;;14.40;41.70;;;;;;5012421;28;20230;-75
2022/12/24 01:17:08;;;;;;;3.30;1.43;;;14.40;41.90;;;;;;5012179;28;20227;-75
2022/12/24 01:19:34;;;;;;;3.00;1.17;;;14.60;41.00;;;;;;5012174;28;20189;-75
2022/12/24 01:21:59;;;;;;;3.13;1.30;;;14.50;42.00;;;;;;5002040;28;20441;-75
2022/12/24 01:24:25;;;;;;;3.00;1.30;;;14.60;40.90;;;;;;5011584;28;20210;-75
2022/12/24 01:26:50;;;;;;;3.00;1.20;;;14.40;40.40;;;;;;5012157;28;20564;-75
2022/12/24 01:29:16;;;;;;;3.20;1.50;;;14.40;41.60;;;;;;5011111;28;20187;-75
2022/12/24 01:31:42;;;;;;;3.00;1.20;;;13.90;41.60;;;;;;5010820;28;20270;-74
2022/12/24 01:34:07;;;;;;;3.10;1.30;;;13.70;43.40;;;;;;5003904;28;20246;-75
2022/12/24 01:36:33;;;;;;;3.00;1.20;;;14.50;41.60;;;;;;5009962;28;20220;-74
2022/12/24 01:38:59;;;;;;;3.00;1.30;;;14.10;41.30;;;;;;5011280;28;20181;-74
2022/12/24 01:44:20;;;;;;;3.13;1.37;;;14.40;40.30;;;;;;5013657;28;20241;-74
2022/12/24 01:46:48;;;;;;;2.90;1.10;;;14.40;39.80;;;;;;5011996;28;20430;-74
2022/12/24 01:49:15;;;;;;;3.00;1.20;;;14.50;40.00;;;;;;5011879;28;20418;-74
2022/12/24 01:51:46;;;;;;;3.00;1.17;;;14.30;39.90;;;;;;5008080;28;20438;-74
2022/12/24 01:54:17;;;;;;;2.97;1.10;;;14.30;39.90;;;;;;5014781;28;20457;-74
2022/12/24 01:56:47;;;;;;;3.00;1.20;;;14.40;40.10;;;;;;5007158;28;20509;-74
2022/12/24 01:59:17;;;;;;;3.10;1.33;;;14.20;39.70;;;;;;5010999;28;20502;-74
2022/12/24 02:01:43;;;;;;;3.10;1.30;;;14.30;40.20;;;;;;5006026;28;20449;-74
2022/12/24 02:04:23;;;;;;;3.07;1.30;;;13.80;40.90;;;;;;5012834;28;20475;-74
2022/12/24 02:06:49;;;;;;;3.20;1.40;;;13.80;42.10;;;;;;5011448;28;20449;-75
2022/12/24 02:09:14;;;;;;;3.00;1.20;;;13.80;41.70;;;;;;5012183;28;20448;-75
2022/12/24 02:11:43;;;;;;;3.00;1.20;;;13.90;41.80;;;;;;5011768;28;20650;-74
2022/12/24 02:14:10;;;;;;;3.00;1.20;;;14.10;40.30;;;;;;5013549;28;20218;-74
2022/12/24 02:16:54;;;;;;;3.00;1.20;;;14.10;41.70;;;;;;5015082;28;20576;-74
2022/12/24 02:19:25;;;;;;;2.90;1.10;;;13.40;43.10;;;;;;5045930;22;21073;-75
2022/12/24 02:22:18;;;;;;;3.00;1.17;;;13.80;42.10;;;;;;5033079;28;20415;-74
2022/12/24 02:25:19;;;;;;;3.00;1.20;;;14.20;40.80;;;;;;5029093;28;20472;-74
2022/12/24 02:28:03;;;;;;;2.97;1.13;;;13.90;41.30;;;;;;5035101;28;20496;-74
2022/12/24 02:30:54;;;;;;;3.00;1.20;;;13.90;41.50;;;;;;5004941;28;20958;-75
2022/12/24 02:33:28;;;;;;;2.87;1.10;;;14.30;40.60;;;;;;4998158;28;20448;-75
2022/12/24 02:36:05;;;;;;;3.00;1.20;;;14.40;40.60;;;;;;5014959;28;20413;-74
2022/12/24 02:38:40;;;;;;;3.10;1.27;;;14.40;40.60;;;;;;5014418;28;20443;-73
2022/12/24 02:41:20;;;;;;;3.10;1.40;;;14.20;41.30;;;;;;5007044;28;21078;-74
2022/12/24 02:43:47;;;;;;;3.07;1.30;;;13.60;42.50;;;;;;5014924;28;20974;-74
2022/12/24 02:46:24;;;;;;;3.10;1.30;;;13.40;43.60;;;;;;5014889;28;20409;-74
2022/12/24 02:48:50;;;;;;;2.90;1.20;;;13.60;43.80;;;;;;5013885;28;20806;-74
2022/12/24 02:51:20;;;;;;;2.90;1.10;;;14.00;42.00;;;;;;5007516;28;20438;-75
2022/12/24 02:53:45;;;;;;;3.03;1.30;;;14.10;41.80;;;;;;5006505;28;20437;-75
2022/12/24 02:56:38;;;;;;;2.90;1.10;;;13.90;41.80;;;;;;5014562;28;20440;-74
2022/12/24 02:59:25;;;;;;;3.00;1.20;;;13.80;41.40;;;;;;5013271;28;20206;-75
2022/12/24 03:01:50;;;;;;;3.00;1.13;;;13.60;42.30;;;;;;5009059;28;20473;-75
2022/12/24 03:04:41;;;;;;;3.07;1.30;;;13.70;41.90;;;;;;5014296;28;20483;-75
2022/12/24 03:07:58;;;;;;;3.03;1.27;;;13.80;42.10;;;;;;5014810;28;20171;-74
2022/12/24 03:10:41;;;;;;;3.00;1.20;;;14.30;40.40;;;;;;4970256;28;20439;-75
2022/12/24 03:13:15;;;;;;;3.10;1.30;;;14.20;40.40;;;;;;4971402;28;20463;-75
2022/12/24 03:15:42;;;;;;;3.00;1.17;;;13.90;40.80;;;;;;4985343;28;20987;-74
2022/12/24 03:18:10;;;;;;;3.07;1.30;;;14.10;40.90;;;;;;4984092;28;20428;-74
2022/12/24 03:20:40;;;;;;;2.90;1.10;;;13.80;41.30;;;;;;4990147;28;20425;-74
2022/12/24 03:23:06;;;;;;;2.97;1.20;;;14.10;41.00;;;;;;4971154;28;20942;-74
2022/12/24 03:25:33;;;;;;;3.00;1.27;;;13.80;41.50;;;;;;4971601;28;20444;-74
2022/12/24 03:28:03;;;;;;;3.00;1.20;;;13.50;41.20;;;;;;4972551;28;20434;-74
2022/12/24 03:30:29;;;;;;;3.10;1.30;;;13.10;43.20;;;;;;4972308;28;20451;-74
2022/12/24 03:32:55;;;;;;;2.90;1.20;;;13.90;43.50;;;;;;4977478;28;20946;-74
2022/12/24 03:35:21;;;;;;;3.27;1.40;;;13.90;42.70;;;;;;4973763;28;20763;-74
2022/12/24 03:37:46;;;;;;;2.93;1.20;;;14.10;42.90;;;;;;4972778;28;20197;-74
2022/12/24 03:40:12;;;;;;;2.80;1.10;;;14.20;41.10;;;;;;4981254;28;20491;-73
2022/12/24 03:42:38;;;;;;;3.10;1.30;;;14.10;40.30;;;;;;5010001;28;20188;-74
2022/12/24 03:45:04;;;;;;;3.30;1.30;;;14.30;40.80;;;;;;5010909;28;20224;-74
2022/12/24 03:47:31;;;;;;;3.10;1.30;;;13.80;41.20;;;;;;5019594;28;20182;-73
2022/12/24 03:49:56;;;;;;;3.10;1.30;;;14.20;40.20;;;;;;5019633;28;20438;-74
2022/12/24 03:52:22;;;;;;;3.10;1.33;;;14.40;40.60;;;;;;5012868;28;20473;-74
2022/12/24 03:54:47;;;;;;;3.07;1.30;;;14.40;39.50;;;;;;5000168;28;20195;-74
2022/12/24 03:57:13;;;;;;;2.90;1.10;;;14.70;38.80;;;;;;5013553;28;20180;-74
2022/12/24 03:59:39;;;;;;;3.00;1.30;;;14.90;37.70;;;;;;5013330;28;20613;-74
2022/12/24 04:02:05;;;;;;;2.90;1.10;;;14.20;39.70;;;;;;4995238;28;20195;-73
2022/12/24 04:04:32;;;;;;;2.90;1.10;;;14.30;40.40;;;;;;5003296;28;20211;-74
2022/12/24 04:06:58;;;;;;;2.90;1.17;;;14.60;38.90;;;;;;5009156;28;20434;-74
2022/12/24 04:09:24;;;;;;;3.10;1.30;;;14.30;40.00;;;;;;5011965;28;21028;-74
2022/12/24 04:11:49;;;;;;;3.00;1.20;;;14.20;39.90;;;;;;5013203;28;20537;-74
2022/12/24 04:14:15;;;;;;;3.00;1.23;;;14.30;39.90;;;;;;5012393;28;20190;-73
2022/12/24 04:16:40;;;;;;;3.00;1.20;;;14.20;40.00;;;;;;5010784;28;20185;-74
2022/12/24 04:19:06;;;;;;;2.97;1.10;;;14.50;38.70;;;;;;5012183;28;20593;-74
2022/12/24 04:21:31;;;;;;;2.93;1.13;;;14.50;38.80;;;;;;5012959;28;20178;-74
2022/12/24 04:23:57;;;;;;;3.20;1.40;;;13.90;40.00;;;;;;5012951;28;20314;-74
2022/12/24 04:26:23;;;;;;;3.10;1.30;;;13.20;43.80;;;;;;5002240;28;20193;-74
2022/12/24 04:28:48;;;;;;;3.00;1.20;;;13.90;42.20;;;;;;5007720;28;20733;-74
2022/12/24 04:31:16;;;;;;;3.10;1.30;;;14.10;41.30;;;;;;5012637;28;20590;-74
2022/12/24 04:33:42;;;;;;;3.07;1.30;;;14.20;40.20;;;;;;5012084;28;20171;-74
2022/12/24 04:36:12;;;;;;;3.10;1.30;;;14.60;39.00;;;;;;5009622;28;20440;-74
2022/12/24 04:38:38;;;;;;;2.90;1.10;;;14.60;38.30;;;;;;5010951;28;20541;-74
2022/12/24 04:41:15;;;;;;;2.93;1.13;;;14.70;38.40;;;;;;5012566;28;20513;-74
2022/12/24 04:43:41;;;;;;;3.00;1.20;;;14.80;38.30;;;;;;5012564;28;20281;-75
2022/12/24 04:46:10;;;;;;;3.00;1.20;;;14.60;38.40;;;;;;5011456;28;20445;-74
2022/12/24 04:48:36;;;;;;;2.93;1.10;;;14.60;38.00;;;;;;5003354;28;20693;-75
2022/12/24 04:51:04;;;;;;;3.00;1.20;;;14.90;36.90;;;;;;5011700;28;20867;-74
2022/12/24 04:53:30;;;;;;;3.00;1.30;;;15.00;37.00;;;;;;5004476;28;20449;-74
2022/12/24 04:55:56;;;;;;;3.00;1.20;;;15.00;37.80;;;;;;5012309;28;20823;-74
2022/12/24 04:58:23;;;;;;;3.07;1.20;;;14.80;36.80;;;;;;5010897;28;20443;-74
2022/12/24 05:00:48;;;;;;;2.90;1.20;;;14.60;37.60;;;;;;5008655;28;20442;-74
2022/12/24 05:03:14;;;;;;;2.90;1.10;;;14.60;37.40;;;;;;5009081;28;20501;-74
2022/12/24 05:05:39;;;;;;;3.20;1.40;;;14.40;38.00;;;;;;5011256;28;20213;-74
2022/12/24 05:08:05;;;;;;;2.90;1.10;;;14.30;38.30;;;;;;5012114;28;20182;-74
2022/12/24 05:10:31;;;;;;;3.53;1.50;;;14.30;39.50;;;;;;5010406;28;20188;-74
2022/12/24 05:12:57;;;;;;;3.00;1.20;;;14.30;39.00;;;;;;5010026;28;20242;-73
2022/12/24 05:15:23;;;;;;;3.00;1.20;;;13.60;40.40;;;;;;5012335;28;20184;-74
2022/12/24 05:17:49;;;;;;;3.00;1.27;;;13.90;40.10;;;;;;5011192;28;20442;-75
2022/12/24 05:20:15;;;;;;;3.00;1.20;;;14.70;38.00;;;;;;5009819;28;20947;-73
2022/12/24 05:28:12;;;;;;;2.90;1.10;;;14.50;39.00;;;;;;5010683;28;20411;-74
2022/12/24 05:30:38;;;;;;;4.33;1.40;;;13.90;39.70;;;;;;5010922;28;20517;-75
2022/12/24 05:33:03;;;;;;;3.00;1.23;;;13.70;40.70;;;;;;5010078;28;20680;-74
2022/12/24 05:35:29;;;;;;;3.00;1.27;;;13.90;40.50;;;;;;5012064;28;20644;-74
2022/12/24 05:37:57;;;;;;;3.00;1.20;;;13.90;41.00;;;;;;5012383;28;20171;-74
2022/12/24 05:40:23;;;;;;;3.00;1.23;;;14.00;41.80;;;;;;5009830;28;20954;-75
2022/12/24 05:42:49;;;;;;;2.90;1.20;;;13.70;42.40;;;;;;5011081;28;20433;-74
2022/12/24 05:45:15;;;;;;;3.10;1.37;;;14.30;40.90;;;;;;5011079;28;20558;-74
2022/12/24 05:47:41;;;;;;;3.13;1.40;;;13.90;41.80;;;;;;5010564;28;20434;-74
2022/12/24 05:50:07;;;;;;;3.00;1.20;;;14.00;42.20;;;;;;5001326;28;20789;-74
2022/12/24 05:52:33;;;;;;;2.93;1.10;;;13.80;41.80;;;;;;5010691;28;20193;-74
2022/12/24 05:54:58;;;;;;;3.07;1.30;;;14.00;41.10;;;;;;5011357;28;20415;-74
2022/12/24 05:57:24;;;;;;;3.07;1.23;;;14.00;41.10;;;;;;5011533;28;20232;-74
2022/12/24 05:59:49;;;;;;;3.00;1.20;;;13.70;41.00;;;;;;5007851;28;20683;-74
2022/12/24 06:02:15;;;;;;;2.90;1.10;;;13.80;41.50;;;;;;5007836;28;20273;-75
2022/12/24 06:04:40;;;;;;;4.03;1.40;;;13.90;42.10;;;;;;5011159;28;20230;-74
2022/12/24 06:07:06;;;;;;;2.90;1.17;;;13.90;40.80;;;;;;5011612;28;20165;-75
2022/12/24 06:09:32;;;;;;;3.00;1.20;;;14.00;41.00;;;;;;5011531;28;20260;-75
2022/12/24 06:11:57;;;;;;;3.00;1.20;;;13.90;40.20;;;;;;5003714;28;20295;-74
2022/12/24 06:14:23;;;;;;;3.00;1.30;;;13.60;41.10;;;;;;5011308;28;20216;-74
2022/12/24 06:16:48;;;;;;;3.00;1.20;;;13.50;43.10;;;;;;5011531;28;20202;-74
2022/12/24 06:19:14;;;;;;;3.00;1.20;;;13.90;41.90;;;;;;5010794;28;20213;-75
2022/12/24 06:21:39;;;;;;;2.93;1.20;;;14.00;40.70;;;;;;5006057;28;20178;-74
2022/12/24 06:24:05;;;;;;;3.00;1.27;;;13.80;41.10;;;;;;5010887;28;20209;-74
2022/12/24 06:26:31;;;;;;;2.97;1.20;;;13.70;40.50;;;;;;5011481;28;20266;-74
2022/12/24 06:28:57;;;;;;;3.00;1.20;;;13.30;41.80;;;;;;5011023;28;20519;-74
2022/12/24 06:31:22;;;;;;;2.90;1.10;;;13.60;40.80;;;;;;5009607;28;20635;-74
2022/12/24 06:33:49;;;;;;;3.00;1.20;;;13.60;40.40;;;;;;5009193;28;20185;-74
2022/12/24 06:36:21;;;;;;;3.00;1.27;;;13.80;39.60;;;;;;5011386;28;20448;-74
2022/12/24 06:38:47;;;;;;;3.10;1.30;;;14.20;40.30;;;;;;5010275;28;20471;-74
2022/12/24 06:41:14;;;;;;;3.10;1.30;;;13.80;40.20;;;;;;5000968;28;20457;-75
2022/12/24 06:43:46;;;;;;;3.10;1.20;;;13.80;39.40;;;;;;5009210;28;20453;-75
2022/12/24 06:46:12;;;;;;;3.20;1.43;;;13.70;39.30;;;;;;5011368;28;20868;-75
2022/12/24 06:48:38;;;;;;;3.10;1.40;;;13.60;39.30;;;;;;5010816;28;20476;-75
2022/12/24 06:51:04;;;;;;;3.10;1.30;;;13.70;39.70;;;;;;4996977;28;20430;-75
2022/12/24 06:53:30;;;;;;;2.90;1.10;;;13.10;40.80;;;;;;4999663;28;20240;-75
2022/12/24 06:56:07;;;;;;;3.00;1.20;;;13.40;40.30;;;;;;5009417;28;20425;-75
2022/12/24 06:58:34;;;;;;;2.90;1.00;;;13.90;39.30;;;;;;5006528;28;21021;-75
2022/12/24 07:01:08;;;;;;;2.90;1.17;;;13.40;40.40;;;;;;5009159;28;20772;-75
2022/12/24 07:03:35;;;;;;;3.20;1.40;;;12.80;41.60;;;;;;5014153;28;20809;-75
2022/12/24 07:06:01;;;;;;;3.00;1.30;;;13.60;40.90;;;;;;5009182;28;20478;-75
2022/12/24 07:08:26;;;;;;;2.90;1.10;;;13.90;39.70;;;;;;5022133;28;20438;-75
2022/12/24 07:10:52;;;;;;;3.60;1.57;;;13.50;40.10;;;;;;5017496;28;20417;-74
2022/12/24 07:13:19;;;;;;;3.00;1.20;;;13.10;40.20;;;;;;5004896;28;20645;-75
2022/12/24 07:15:45;;;;;;;3.00;1.20;;;13.10;40.90;;;;;;5012499;28;20876;-74
2022/12/24 07:18:11;;;;;;;3.00;1.20;;;13.50;39.50;;;;;;5014239;28;20412;-74
2022/12/24 07:20:37;;;;;;;3.10;1.30;;;13.40;39.80;;;;;;5008238;28;20441;-74
2022/12/24 07:23:03;;;;;;;3.00;1.20;;;13.70;39.40;;;;;;5009411;28;20440;-74
2022/12/24 07:25:29;;;;;;;2.90;1.10;;;12.90;40.10;;;;;;5013368;28;20987;-74
2022/12/24 07:27:54;;;;;;;2.90;1.20;;;12.70;41.90;;;;;;5014055;28;20436;-74
2022/12/24 07:30:20;;;;;;;3.10;1.40;;;13.00;40.50;;;;;;5012921;28;20215;-74
2022/12/24 07:32:46;;;;;;;2.93;1.20;;;12.70;41.00;;;;;;5011724;28;20230;-74
2022/12/24 07:35:11;;;;;;;3.10;1.30;;;13.30;40.60;;;;;;5011683;28;20209;-74
2022/12/24 07:37:37;;;;;;;2.90;1.10;;;13.30;39.40;;;;;;5013895;28;20170;-74
2022/12/24 07:40:06;;;;;;;2.90;1.10;;;13.20;39.10;;;;;;5013378;28;20691;-74
2022/12/24 07:42:32;;;;;;;3.00;1.20;;;13.00;40.00;;;;;;5011768;28;20184;-74
2022/12/24 07:44:58;;;;;;;3.00;1.20;;;13.00;40.20;;;;;;5011997;28;20477;-75
2022/12/24 07:47:23;;;;;;;2.90;1.10;;;13.60;39.70;;;;;;5013734;28;20835;-75
2022/12/24 07:49:49;;;;;;;2.90;1.10;;;13.60;39.60;;;;;;5013211;28;20232;-74
2022/12/24 07:52:15;;;;;;;3.10;1.23;;;13.60;38.60;;;;;;5012852;28;20185;-74
2022/12/24 07:54:41;;;;;;;2.90;1.10;;;13.30;38.50;;;;;;5011618;28;20204;-74
2022/12/24 07:57:06;;;;;;;2.90;1.10;;;13.40;38.20;;;;;;5013475;28;20173;-74
2022/12/24 07:59:32;;;;;;;2.90;1.20;;;13.60;37.90;;;;;;5013576;28;20292;-75
2022/12/24 08:01:57;;;;;;;3.53;1.50;;;13.10;38.70;;;;;;5013461;28;20204;-74
2022/12/24 08:04:23;;;;;;;3.17;1.40;;;13.50;38.90;;;;;;5002912;28;20201;-74
2022/12/24 08:06:48;;;;;;;3.00;1.20;;;14.10;38.60;;;;;;5010988;28;20179;-74
2022/12/24 08:09:14;;;;;;;3.00;1.30;;;13.40;38.20;;;;;;5013000;28;20194;-74
2022/12/24 08:11:40;;;;;;;2.90;1.20;;;13.80;38.20;;;;;;5011590;28;20178;-75
2022/12/24 08:14:05;;;;;;;2.93;1.20;;;14.10;37.60;;;;;;5013522;28;20210;-74
2022/12/24 08:16:31;;;;;;;3.10;1.40;;;14.60;37.50;;;;;;5011594;28;20186;-75
2022/12/24 08:18:57;;;;;;;3.30;1.50;;;14.50;36.00;;;;;;5012610;28;20672;-75
2022/12/24 08:21:22;;;;;;;2.90;1.10;;;13.80;37.00;;;;;;5011210;28;20249;-75
2022/12/24 08:23:48;;;;;;;2.93;1.27;;;13.70;37.20;;;;;;4997512;28;20204;-74
2022/12/24 08:26:13;;;;;;;3.53;1.53;;;14.50;36.50;;;;;;5009426;28;20218;-74
2022/12/24 08:28:39;;;;;;;3.00;1.30;;;15.10;35.30;;;;;;5012757;28;20287;-75
2022/12/24 08:31:05;;;;;;;3.00;1.37;;;14.80;35.10;;;;;;5015342;28;20183;-80
2022/12/24 08:33:31;;;;;;;3.10;1.33;;;14.70;36.50;;;;;;5017256;28;20182;-80
2022/12/24 08:35:56;;;;;;;3.03;1.30;;;14.70;34.80;;;;;;5021266;28;20171;-79
2022/12/24 08:38:23;;;;;;;2.90;1.20;;;14.60;34.80;;;;;;5017932;28;21254;-79
2022/12/24 08:40:49;;;;;;;2.97;1.20;;;14.90;34.50;;;;;;5019831;28;20177;-80
2022/12/24 08:43:16;;;;;;;3.00;1.30;;;15.10;34.20;;;;;;5011468;28;20434;-79
2022/12/24 08:45:42;;;;;;;2.90;1.20;;;14.90;33.60;;;;;;5020173;28;20176;-80
2022/12/24 08:48:08;;;;;;;2.90;1.23;;;15.00;33.50;;;;;;5010997;28;20447;-77
2022/12/24 08:50:35;;;;;;;2.80;1.10;;;15.00;33.60;;;;;;5006044;28;20513;-75
2022/12/24 08:53:00;;;;;;;3.07;1.30;;;14.70;34.00;;;;;;5005976;28;20442;-75
2022/12/24 08:55:26;;;;;;;2.87;1.20;;;14.10;36.20;;;;;;5012204;28;20415;-74
2022/12/24 08:57:51;;;;;;;4.43;1.83;;;14.70;34.90;;;;;;5011668;28;20280;-75
2022/12/24 09:00:17;;;;;;;2.90;1.30;;;15.10;34.40;;;;;;5010646;28;20657;-75
2022/12/24 09:02:43;;;;;;;2.80;1.20;;;14.90;34.40;;;;;;5012419;28;20265;-75
2022/12/24 09:05:09;;;;;;;2.90;1.20;;;14.40;35.50;;;;;;5012614;28;20479;-75
2022/12/24 09:07:35;;;;;;;5.63;2.00;;;14.80;36.80;;;;;;5013024;28;20218;-75
2022/12/24 09:10:01;;;;;;;3.30;1.50;;;14.10;36.80;;;;;;5002787;28;20197;-75
2022/12/24 09:12:26;;;;;;;2.90;1.20;;;13.90;38.20;;;;;;5012024;28;20414;-75
2022/12/24 09:14:53;;;;;;;2.90;1.20;;;14.50;36.60;;;;;;5012420;28;20907;-77
2022/12/24 09:17:19;;;;;;;2.90;1.40;;;14.70;35.90;;;;;;5009782;28;20181;-76
2022/12/24 09:19:45;;;;;;;2.90;1.30;;;15.10;35.00;;;;;;4999876;28;20478;-76
2022/12/24 09:22:11;;;;;;;2.80;1.20;;;15.30;34.60;;;;;;5007193;28;20434;-76
2022/12/24 09:24:36;;;;;;;2.90;1.30;;;14.70;34.90;;;;;;5012379;28;20455;-77
2022/12/24 09:27:02;;;;;;;2.80;1.20;;;14.60;35.70;;;;;;5011841;28;20165;-77
2022/12/24 09:29:29;;;;;;;2.90;1.30;;;14.00;36.10;;;;;;4997903;28;20228;-74
2022/12/24 09:31:55;;;;;;;2.80;1.20;;;14.30;36.40;;;;;;5004765;28;20436;-75
2022/12/24 09:34:21;;;;;;;2.80;1.20;;;14.30;36.70;;;;;;5011903;28;20472;-75
2022/12/24 09:36:46;;;;;;;4.93;1.63;;;14.80;34.70;;;;;;5011932;28;20251;-75
2022/12/24 09:39:13;;;;;;;2.90;1.30;;;14.90;33.40;;;;;;4998761;28;20527;-75
2022/12/24 09:41:55;;;;;;;3.00;1.43;;;15.00;33.60;;;;;;5000553;28;20191;-75
2022/12/24 09:44:39;;;;;;;2.80;1.20;;;14.80;33.40;;;;;;5011552;28;20551;-76
2022/12/24 09:47:21;;;;;;;2.80;1.30;;;15.30;33.30;;;;;;5012207;28;20403;-76
2022/12/24 09:49:50;;;;;;;2.70;1.10;;;15.20;33.10;;;;;;4995969;28;20815;-75
2022/12/24 09:52:28;;;;;;;2.80;1.20;;;14.70;33.10;;;;;;5005290;28;20440;-75
2022/12/24 09:55:21;;;;;;;2.90;1.30;;;14.90;33.90;;;;;;5011432;28;20435;-76
2022/12/24 09:57:49;;;;;;;2.70;1.20;;;15.00;32.70;;;;;;4998883;28;20555;-76
2022/12/24 10:00:22;;;;;;;2.80;1.30;;;15.20;32.60;;;;;;5010496;28;20546;-76
2022/12/24 10:02:48;;;;;;;3.30;1.50;;;15.00;32.70;;;;;;5011781;28;20431;-73
2022/12/24 10:05:16;;;;;;;2.80;1.30;;;14.40;34.20;;;;;;5010724;28;20516;-74
2022/12/24 10:08:03;;;;;;;2.80;1.20;;;14.20;34.50;;;;;;5004664;28;20787;-73
2022/12/24 10:10:52;;;;;;;2.77;1.20;;;14.40;33.90;;;;;;5010751;28;20432;-73
2022/12/24 10:13:28;;;;;;;2.73;1.17;;;15.00;33.30;;;;;;5010436;28;20415;-73
2022/12/24 10:16:29;;;;;;;2.77;1.17;;;15.20;32.50;;;;;;5005341;28;20428;-73
2022/12/24 10:19:28;;;;;;;2.80;1.30;;;14.30;34.10;;;;;;4932131;29;20849;-72
2022/12/24 10:22:28;;;;;;;2.73;1.20;;;14.50;34.40;;;;;;4927450;29;20585;-73
2022/12/24 10:24:56;;;;;;;2.90;1.30;;;14.30;35.40;;;;;;4940684;29;20499;-72
2022/12/24 10:27:29;;;;;;;2.80;1.30;;;14.60;34.10;;;;;;4930933;29;20443;-72
2022/12/24 10:30:12;;;;;;;2.80;1.20;;;14.40;34.50;;;;;;4931812;29;20872;-72
2022/12/24 10:32:38;;;;;;;2.70;1.10;;;14.30;34.40;;;;;;4939985;29;20959;-72
2022/12/24 10:35:13;;;;;;;2.90;1.30;;;14.20;35.50;;;;;;4951265;29;20474;-73
2022/12/24 10:37:40;;;;;;;2.80;1.17;;;14.50;34.10;;;;;;4933858;29;20486;-73
2022/12/24 10:40:11;;;;;;;2.77;1.20;;;14.40;34.60;;;;;;4935415;29;20848;-72
2022/12/24 10:42:43;;;;;;;2.80;1.23;;;14.80;34.10;;;;;;4914349;29;20818;-72
2022/12/24 10:45:15;;;;;;;2.90;1.40;;;15.10;33.20;;;;;;4950709;29;20509;-73
2022/12/24 10:47:42;;;;;;;2.90;1.30;;;15.00;33.20;;;;;;4937522;29;20530;-72
2022/12/24 10:50:29;;;;;;;2.90;1.37;;;15.20;33.30;;;;;;4938056;29;20467;-72
2022/12/24 10:53:05;;;;;;;6.00;1.63;;;15.20;33.20;;;;;;4979094;28;20485;-72
2022/12/24 10:55:31;;;;;;;2.70;1.10;;;15.10;33.60;;;;;;4999490;28;20451;-72
2022/12/24 10:58:02;;;;;;;2.83;1.30;;;15.50;32.80;;;;;;5003694;28;20444;-73
2022/12/24 11:00:29;;;;;;;2.80;1.20;;;15.70;31.80;;;;;;5008760;28;20181;-72
2022/12/24 11:03:30;;;;;;;3.00;1.50;;;15.50;32.10;;;;;;5013748;28;20428;-72
2022/12/24 11:06:00;;;;;;;2.80;1.20;;;14.90;33.90;;;;;;4986890;28;20451;-73
2022/12/24 11:08:25;;;;;;;2.80;1.20;;;14.70;34.30;;;;;;5008083;28;20519;-72
2022/12/24 11:10:58;;;;;;;2.83;1.30;;;14.60;35.60;;;;;;5013450;28;20519;-72
2022/12/24 11:13:31;;;;;;;2.90;1.30;;;14.80;34.90;;;;;;5013149;28;20173;-72
2022/12/24 11:16:18;;;;;;;2.90;1.30;;;14.90;34.50;;;;;;5014648;28;20406;-73
2022/12/24 11:18:48;;;;;;;2.90;1.20;;;14.90;34.10;;;;;;5010771;28;20512;-72
2022/12/24 11:21:23;;;;;;;3.40;1.40;;;15.30;33.70;;;;;;5009136;28;20493;-72
2022/12/24 11:24:17;;;;;;;2.80;1.20;;;15.60;33.00;;;;;;5007306;28;20459;-72
2022/12/24 11:26:44;;;;;;;2.90;1.30;;;16.30;32.60;;;;;;5001804;28;20777;-72
2022/12/24 11:29:19;;;;;;;2.90;1.20;;;15.10;33.20;;;;;;5003550;28;20458;-73
2022/12/24 11:31:46;;;;;;;2.80;1.20;;;15.30;33.60;;;;;;5003685;28;20432;-74
2022/12/24 11:34:28;;;;;;;2.80;1.20;;;14.90;33.80;;;;;;5011556;28;20446;-73
2022/12/24 11:37:07;;;;;;;2.90;1.20;;;15.60;33.30;;;;;;5004657;28;20508;-74
2022/12/24 11:39:44;;;;;;;3.00;1.20;;;15.80;32.60;;;;;;5010378;28;20467;-73
2022/12/24 11:42:32;;;;;;;3.00;1.40;;;16.00;32.40;;;;;;5012394;28;20440;-73
2022/12/24 11:45:00;;;;;;;2.93;1.23;;;16.00;32.20;;;;;;5009732;28;20467;-74
2022/12/24 11:47:34;;;;;;;3.00;1.20;;;16.00;32.50;;;;;;5011717;28;20416;-73
2022/12/24 11:50:30;;;;;;;3.30;1.47;;;16.00;32.20;;;;;;5008561;28;20464;-74
2022/12/24 11:53:09;;;;;;;3.70;1.60;;;15.70;32.50;;;;;;5003327;28;20490;-74
2022/12/24 11:55:55;;;;;;;3.10;1.40;;;16.40;31.70;;;;;;5008677;28;20441;-74
2022/12/24 11:58:42;;;;;;;2.93;1.13;;;16.70;30.70;;;;;;5012622;28;20819;-74
2022/12/24 12:01:22;;;;;;;2.90;1.10;;;15.70;32.30;;;;;;5013198;28;20492;-73
2022/12/24 12:03:52;;;;;;;3.00;1.20;;;15.80;32.20;;;;;;5000747;28;20482;-73
2022/12/24 12:06:41;;;;;;;2.90;1.10;;;15.90;31.90;;;;;;5012550;28;20475;-74
2022/12/24 12:09:13;;;;;;;3.07;1.20;;;16.10;32.10;;;;;;5011878;28;20960;-73
2022/12/24 12:11:42;;;;;;;3.10;1.30;;;16.40;31.90;;;;;;5008074;28;20889;-72
2022/12/24 12:14:19;;;;;;;3.20;1.27;;;16.40;30.90;;;;;;5003303;28;20459;-73
2022/12/24 12:17:04;;;;;;;3.10;1.20;;;16.50;31.30;;;;;;5013525;28;20421;-73
2022/12/24 12:19:56;;;;;;;3.10;1.20;;;16.50;30.90;;;;;;5011247;28;20451;-73
2022/12/24 12:22:55;;;;;;;3.00;1.20;;;16.10;31.40;;;;;;5010199;28;20447;-74
2022/12/24 12:25:45;;;;;;;3.20;1.30;;;15.40;33.20;;;;;;5009833;28;20512;-74
2022/12/24 12:28:19;;;;;;;3.00;1.20;;;15.80;31.90;;;;;;4999207;28;20956;-74
2022/12/24 12:30:49;;;;;;;2.97;1.20;;;15.50;32.80;;;;;;5011649;28;20420;-74
2022/12/24 12:33:25;;;;;;;3.10;1.30;;;15.40;33.20;;;;;;5012123;28;20404;-74
2022/12/24 12:35:54;;;;;;;3.03;1.23;;;15.20;33.40;;;;;;5012565;28;20761;-73
2022/12/24 12:38:27;;;;;;;3.10;1.20;;;15.70;33.50;;;;;;5009072;28;20451;-73
2022/12/24 12:41:08;;;;;;;3.10;1.30;;;16.30;31.60;;;;;;5011329;28;20762;-73
2022/12/24 12:44:11;;;;;;;3.50;1.47;;;16.20;32.40;;;;;;4999295;28;20456;-73
2022/12/24 12:47:07;;;;;;;3.40;1.30;;;17.20;30.10;;;;;;4993150;28;20406;-72
2022/12/24 12:50:07;;;;;;;5.83;1.73;;;16.90;30.00;;;;;;5000021;28;20960;-75
2022/12/24 12:52:43;;;;;;;3.60;1.50;;;16.80;30.50;;;;;;5005124;28;20412;-75
2022/12/24 12:55:26;;;;;;;3.20;1.20;;;17.10;30.00;;;;;;5008876;28;20517;-75
2022/12/24 12:57:55;;;;;;;4.33;1.50;;;15.90;31.50;;;;;;5011231;28;20443;-77
2022/12/24 13:00:21;;;;;;;3.20;1.20;;;15.10;33.80;;;;;;5006603;28;20465;-74
2022/12/24 13:03:08;;;;;;;3.20;1.33;;;15.70;33.00;;;;;;5011778;28;20802;-75
2022/12/24 13:06:05;;;;;;;3.00;1.13;;;15.80;32.90;;;;;;5011635;28;20225;-75
2022/12/24 13:09:13;;;;;;;3.10;1.30;;;15.50;32.90;;;;;;5004824;28;20958;-75
2022/12/24 13:12:04;;;;;;;4.03;1.30;;;15.20;34.30;;;;;;5012217;28;20427;-75
2022/12/24 13:14:53;;;;;;;3.00;1.20;;;16.00;32.10;;;;;;5011139;28;20977;-75
2022/12/24 13:17:45;;;;;;;3.00;1.20;;;16.00;32.60;;;;;;4999870;28;20480;-72